sensor_id;sensor_type;location;lat;lon;timestamp;P1;durP1;ratioP1;P2;durP2;ratioP2
11777;SDS011;5946;51.770;8.548;2024-01-30T00:00:13;23.80;;;17.53;;
11777;SDS011;5946;51.770;8.548;2024-01-30T00:02:39;24.83;;;18.13;;
11777;SDS011;5946;51.770;8.548;2024-01-30T00:05:06;22.50;;;18.03;;
11777;SDS011;5946;51.770;8.548;2024-01-30T00:07:32;23.60;;;17.60;;
11777;SDS011;5946;51.770;8.548;2024-01-30T00:09:58;24.70;;;18.03;;
11777;SDS011;5946;51.770;8.548;2024-01-30T00:12:24;24.47;;;18.13;;
11777;SDS011;5946;51.770;8.548;2024-01-30T00:14:50;23.93;;;18.07;;
11777;SDS011;5946;51.770;8.548;2024-01-30T00:17:16;26.60;;;18.97;;
11777;SDS011;5946;51.770;8.548;2024-01-30T00:19:44;25.70;;;18.97;;
11777;SDS011;5946;51.770;8.548;2024-01-30T00:22:10;24.83;;;19.33;;
11777;SDS011;5946;51.770;8.548;2024-01-30T00:24:36;24.97;;;19.23;;
11777;SDS011;5946;51.770;8.548;2024-01-30T00:27:02;28.27;;;19.67;;
11777;SDS011;5946;51.770;8.548;2024-01-30T00:29:28;27.73;;;19.03;;
11777;SDS011;5946;51.770;8.548;2024-01-30T00:31:56;26.20;;;18.83;;
11777;SDS011;5946;51.770;8.548;2024-01-30T00:34:22;25.73;;;18.87;;
11777;SDS011;5946;51.770;8.548;2024-01-30T00:36:48;29.23;;;19.23;;
11777;SDS011;5946;51.770;8.548;2024-01-30T00:39:13;23.87;;;18.40;;
11777;SDS011;5946;51.770;8.548;2024-01-30T00:41:40;23.67;;;18.33;;
11777;SDS011;5946;51.770;8.548;2024-01-30T00:44:06;28.90;;;19.40;;
11777;SDS011;5946;51.770;8.548;2024-01-30T00:46:32;25.63;;;18.43;;
11777;SDS011;5946;51.770;8.548;2024-01-30T00:48:58;26.70;;;19.03;;
11777;SDS011;5946;51.770;8.548;2024-01-30T00:51:24;27.30;;;18.50;;
11777;SDS011;5946;51.770;8.548;2024-01-30T00:53:50;24.80;;;18.30;;
11777;SDS011;5946;51.770;8.548;2024-01-30T00:56:16;22.27;;;17.00;;
11777;SDS011;5946;51.770;8.548;2024-01-30T00:58:43;26.40;;;18.40;;
11777;SDS011;5946;51.770;8.548;2024-01-30T01:01:09;25.50;;;18.57;;
11777;SDS011;5946;51.770;8.548;2024-01-30T01:03:36;24.37;;;17.40;;
11777;SDS011;5946;51.770;8.548;2024-01-30T01:06:02;22.63;;;17.03;;
11777;SDS011;5946;51.770;8.548;2024-01-30T01:08:28;30.37;;;19.30;;
11777;SDS011;5946;51.770;8.548;2024-01-30T01:10:54;25.90;;;18.97;;
11777;SDS011;5946;51.770;8.548;2024-01-30T01:13:21;22.57;;;17.77;;
11777;SDS011;5946;51.770;8.548;2024-01-30T01:15:47;25.50;;;18.17;;
11777;SDS011;5946;51.770;8.548;2024-01-30T01:18:12;25.63;;;19.13;;
11777;SDS011;5946;51.770;8.548;2024-01-30T01:20:38;27.10;;;19.23;;
11777;SDS011;5946;51.770;8.548;2024-01-30T01:23:04;25.03;;;18.83;;
11777;SDS011;5946;51.770;8.548;2024-01-30T01:25:30;31.13;;;19.00;;
11777;SDS011;5946;51.770;8.548;2024-01-30T01:27:56;27.57;;;18.33;;
11777;SDS011;5946;51.770;8.548;2024-01-30T01:30:22;26.00;;;19.43;;
11777;SDS011;5946;51.770;8.548;2024-01-30T01:32:48;24.17;;;19.07;;
11777;SDS011;5946;51.770;8.548;2024-01-30T01:35:20;26.50;;;18.40;;
11777;SDS011;5946;51.770;8.548;2024-01-30T01:37:46;26.20;;;18.97;;
11777;SDS011;5946;51.770;8.548;2024-01-30T01:40:12;26.40;;;18.57;;
11777;SDS011;5946;51.770;8.548;2024-01-30T01:42:38;25.47;;;18.33;;
11777;SDS011;5946;51.770;8.548;2024-01-30T01:45:04;23.80;;;17.20;;
11777;SDS011;5946;51.770;8.548;2024-01-30T01:47:30;25.77;;;18.90;;
11777;SDS011;5946;51.770;8.548;2024-01-30T01:49:56;25.77;;;18.07;;
11777;SDS011;5946;51.770;8.548;2024-01-30T01:52:22;28.63;;;18.67;;
11777;SDS011;5946;51.770;8.548;2024-01-30T01:54:48;27.93;;;18.53;;
11777;SDS011;5946;51.770;8.548;2024-01-30T01:57:14;26.93;;;18.87;;
11777;SDS011;5946;51.770;8.548;2024-01-30T01:59:40;25.43;;;18.60;;
11777;SDS011;5946;51.770;8.548;2024-01-30T02:02:06;29.53;;;20.47;;
11777;SDS011;5946;51.770;8.548;2024-01-30T02:04:35;27.57;;;19.20;;
11777;SDS011;5946;51.770;8.548;2024-01-30T02:07:01;26.40;;;19.13;;
11777;SDS011;5946;51.770;8.548;2024-01-30T02:09:27;24.23;;;18.50;;
11777;SDS011;5946;51.770;8.548;2024-01-30T02:11:53;27.60;;;19.60;;
11777;SDS011;5946;51.770;8.548;2024-01-30T02:14:19;28.07;;;19.73;;
11777;SDS011;5946;51.770;8.548;2024-01-30T02:16:45;26.77;;;19.67;;
11777;SDS011;5946;51.770;8.548;2024-01-30T02:19:11;24.17;;;18.93;;
11777;SDS011;5946;51.770;8.548;2024-01-30T02:21:37;27.80;;;20.03;;
11777;SDS011;5946;51.770;8.548;2024-01-30T02:24:03;27.10;;;19.70;;
11777;SDS011;5946;51.770;8.548;2024-01-30T02:26:29;26.27;;;19.07;;
11777;SDS011;5946;51.770;8.548;2024-01-30T02:28:55;23.80;;;18.67;;
11777;SDS011;5946;51.770;8.548;2024-01-30T02:31:21;27.37;;;19.37;;
11777;SDS011;5946;51.770;8.548;2024-01-30T02:33:47;27.23;;;19.10;;
11777;SDS011;5946;51.770;8.548;2024-01-30T02:36:13;28.43;;;19.73;;
11777;SDS011;5946;51.770;8.548;2024-01-30T02:38:40;26.27;;;19.17;;
11777;SDS011;5946;51.770;8.548;2024-01-30T02:41:06;26.60;;;18.63;;
11777;SDS011;5946;51.770;8.548;2024-01-30T02:43:32;24.77;;;18.23;;
11777;SDS011;5946;51.770;8.548;2024-01-30T02:45:58;28.37;;;19.80;;
11777;SDS011;5946;51.770;8.548;2024-01-30T02:48:25;25.67;;;18.77;;
11777;SDS011;5946;51.770;8.548;2024-01-30T02:50:51;28.80;;;19.20;;
11777;SDS011;5946;51.770;8.548;2024-01-30T02:53:17;25.43;;;18.87;;
11777;SDS011;5946;51.770;8.548;2024-01-30T02:55:43;26.63;;;19.13;;
11777;SDS011;5946;51.770;8.548;2024-01-30T02:58:09;29.80;;;20.10;;
11777;SDS011;5946;51.770;8.548;2024-01-30T03:00:35;26.67;;;19.83;;
11777;SDS011;5946;51.770;8.548;2024-01-30T03:03:01;27.70;;;18.80;;
11777;SDS011;5946;51.770;8.548;2024-01-30T03:05:27;30.90;;;20.70;;
11777;SDS011;5946;51.770;8.548;2024-01-30T03:07:53;23.73;;;18.27;;
11777;SDS011;5946;51.770;8.548;2024-01-30T03:10:19;26.97;;;19.60;;
11777;SDS011;5946;51.770;8.548;2024-01-30T03:12:45;30.30;;;20.50;;
11777;SDS011;5946;51.770;8.548;2024-01-30T03:15:11;29.27;;;19.60;;
11777;SDS011;5946;51.770;8.548;2024-01-30T03:17:37;27.50;;;19.30;;
11777;SDS011;5946;51.770;8.548;2024-01-30T03:20:03;28.80;;;19.57;;
11777;SDS011;5946;51.770;8.548;2024-01-30T03:22:31;29.67;;;19.77;;
11777;SDS011;5946;51.770;8.548;2024-01-30T03:24:57;25.53;;;19.33;;
11777;SDS011;5946;51.770;8.548;2024-01-30T03:27:22;27.20;;;19.30;;
11777;SDS011;5946;51.770;8.548;2024-01-30T03:29:48;25.43;;;19.17;;
11777;SDS011;5946;51.770;8.548;2024-01-30T03:32:14;29.03;;;20.37;;
11777;SDS011;5946;51.770;8.548;2024-01-30T03:34:40;26.70;;;19.53;;
11777;SDS011;5946;51.770;8.548;2024-01-30T03:37:06;28.33;;;19.50;;
11777;SDS011;5946;51.770;8.548;2024-01-30T03:39:32;29.30;;;19.33;;
11777;SDS011;5946;51.770;8.548;2024-01-30T03:41:58;27.00;;;19.53;;
11777;SDS011;5946;51.770;8.548;2024-01-30T03:44:24;27.77;;;18.93;;
11777;SDS011;5946;51.770;8.548;2024-01-30T03:46:50;28.90;;;19.83;;
11777;SDS011;5946;51.770;8.548;2024-01-30T03:49:16;27.67;;;19.00;;
11777;SDS011;5946;51.770;8.548;2024-01-30T03:51:42;28.60;;;19.90;;
11777;SDS011;5946;51.770;8.548;2024-01-30T03:54:08;29.07;;;19.80;;
11777;SDS011;5946;51.770;8.548;2024-01-30T03:56:34;29.93;;;19.90;;
11777;SDS011;5946;51.770;8.548;2024-01-30T03:59:00;32.30;;;20.30;;
11777;SDS011;5946;51.770;8.548;2024-01-30T04:01:27;25.30;;;18.63;;
11777;SDS011;5946;51.770;8.548;2024-01-30T04:03:53;28.20;;;19.03;;
11777;SDS011;5946;51.770;8.548;2024-01-30T04:06:19;27.57;;;19.40;;
11777;SDS011;5946;51.770;8.548;2024-01-30T04:08:45;29.03;;;19.10;;
11777;SDS011;5946;51.770;8.548;2024-01-30T04:11:11;28.07;;;18.83;;
11777;SDS011;5946;51.770;8.548;2024-01-30T04:13:37;28.43;;;19.50;;
11777;SDS011;5946;51.770;8.548;2024-01-30T04:16:03;26.83;;;18.87;;
11777;SDS011;5946;51.770;8.548;2024-01-30T04:18:29;29.53;;;18.60;;
11777;SDS011;5946;51.770;8.548;2024-01-30T04:20:55;26.10;;;18.33;;
11777;SDS011;5946;51.770;8.548;2024-01-30T04:23:21;25.53;;;18.10;;
11777;SDS011;5946;51.770;8.548;2024-01-30T04:25:47;28.10;;;19.27;;
11777;SDS011;5946;51.770;8.548;2024-01-30T04:28:13;25.83;;;19.00;;
11777;SDS011;5946;51.770;8.548;2024-01-30T04:30:39;26.17;;;18.70;;
11777;SDS011;5946;51.770;8.548;2024-01-30T04:33:05;25.97;;;18.93;;
11777;SDS011;5946;51.770;8.548;2024-01-30T04:35:31;27.33;;;18.33;;
11777;SDS011;5946;51.770;8.548;2024-01-30T04:37:57;25.50;;;18.00;;
11777;SDS011;5946;51.770;8.548;2024-01-30T04:40:23;24.70;;;18.27;;
11777;SDS011;5946;51.770;8.548;2024-01-30T04:42:49;27.07;;;16.97;;
11777;SDS011;5946;51.770;8.548;2024-01-30T04:45:15;25.27;;;17.80;;
11777;SDS011;5946;51.770;8.548;2024-01-30T04:47:41;25.03;;;18.00;;
11777;SDS011;5946;51.770;8.548;2024-01-30T04:50:07;26.20;;;18.07;;
11777;SDS011;5946;51.770;8.548;2024-01-30T04:52:33;25.27;;;17.20;;
11777;SDS011;5946;51.770;8.548;2024-01-30T04:54:59;26.13;;;17.57;;
11777;SDS011;5946;51.770;8.548;2024-01-30T04:57:25;24.53;;;17.60;;
11777;SDS011;5946;51.770;8.548;2024-01-30T04:59:51;24.80;;;17.50;;
11777;SDS011;5946;51.770;8.548;2024-01-30T05:02:17;25.17;;;17.50;;
11777;SDS011;5946;51.770;8.548;2024-01-30T05:04:43;25.40;;;17.67;;
11777;SDS011;5946;51.770;8.548;2024-01-30T05:07:09;27.47;;;17.87;;
11777;SDS011;5946;51.770;8.548;2024-01-30T05:09:35;22.90;;;17.47;;
11777;SDS011;5946;51.770;8.548;2024-01-30T05:12:02;25.40;;;17.33;;
11777;SDS011;5946;51.770;8.548;2024-01-30T05:14:28;23.07;;;17.03;;
11777;SDS011;5946;51.770;8.548;2024-01-30T05:16:54;23.23;;;17.43;;
11777;SDS011;5946;51.770;8.548;2024-01-30T05:19:19;29.90;;;17.90;;
11777;SDS011;5946;51.770;8.548;2024-01-30T05:21:48;24.07;;;17.37;;
11777;SDS011;5946;51.770;8.548;2024-01-30T05:24:14;29.00;;;17.60;;
11777;SDS011;5946;51.770;8.548;2024-01-30T05:26:40;29.73;;;18.33;;
11777;SDS011;5946;51.770;8.548;2024-01-30T05:29:06;26.97;;;18.10;;
11777;SDS011;5946;51.770;8.548;2024-01-30T05:31:32;24.50;;;17.77;;
11777;SDS011;5946;51.770;8.548;2024-01-30T05:33:59;29.17;;;17.87;;
11777;SDS011;5946;51.770;8.548;2024-01-30T05:36:25;28.53;;;18.37;;
11777;SDS011;5946;51.770;8.548;2024-01-30T05:38:51;24.83;;;17.83;;
11777;SDS011;5946;51.770;8.548;2024-01-30T05:41:17;30.00;;;17.97;;
11777;SDS011;5946;51.770;8.548;2024-01-30T05:43:43;26.90;;;17.90;;
11777;SDS011;5946;51.770;8.548;2024-01-30T05:46:09;25.97;;;17.33;;
11777;SDS011;5946;51.770;8.548;2024-01-30T05:48:35;23.27;;;16.73;;
11777;SDS011;5946;51.770;8.548;2024-01-30T05:51:01;25.17;;;17.13;;
11777;SDS011;5946;51.770;8.548;2024-01-30T05:53:28;22.87;;;16.40;;
11777;SDS011;5946;51.770;8.548;2024-01-30T05:55:54;25.17;;;16.90;;
11777;SDS011;5946;51.770;8.548;2024-01-30T05:58:20;27.57;;;17.13;;
11777;SDS011;5946;51.770;8.548;2024-01-30T06:00:47;25.20;;;16.80;;
11777;SDS011;5946;51.770;8.548;2024-01-30T06:03:13;22.83;;;16.10;;
11777;SDS011;5946;51.770;8.548;2024-01-30T06:05:38;25.53;;;16.17;;
11777;SDS011;5946;51.770;8.548;2024-01-30T06:08:05;23.00;;;15.97;;
11777;SDS011;5946;51.770;8.548;2024-01-30T06:10:31;20.43;;;15.67;;
11777;SDS011;5946;51.770;8.548;2024-01-30T06:12:57;23.10;;;16.17;;
11777;SDS011;5946;51.770;8.548;2024-01-30T06:15:23;21.93;;;15.60;;
11777;SDS011;5946;51.770;8.548;2024-01-30T06:17:48;23.10;;;15.43;;
11777;SDS011;5946;51.770;8.548;2024-01-30T06:20:14;29.83;;;17.40;;
11777;SDS011;5946;51.770;8.548;2024-01-30T06:22:40;18.97;;;15.23;;
11777;SDS011;5946;51.770;8.548;2024-01-30T06:25:06;21.20;;;16.27;;
11777;SDS011;5946;51.770;8.548;2024-01-30T06:27:33;24.27;;;15.37;;
11777;SDS011;5946;51.770;8.548;2024-01-30T06:29:58;21.47;;;15.27;;
11777;SDS011;5946;51.770;8.548;2024-01-30T06:32:24;27.90;;;16.13;;
11777;SDS011;5946;51.770;8.548;2024-01-30T06:34:50;23.17;;;15.60;;
11777;SDS011;5946;51.770;8.548;2024-01-30T06:37:16;21.53;;;15.47;;
11777;SDS011;5946;51.770;8.548;2024-01-30T06:39:42;24.00;;;16.03;;
11777;SDS011;5946;51.770;8.548;2024-01-30T06:42:09;23.93;;;15.23;;
11777;SDS011;5946;51.770;8.548;2024-01-30T06:44:36;21.93;;;14.93;;
11777;SDS011;5946;51.770;8.548;2024-01-30T06:47:02;23.20;;;14.80;;
11777;SDS011;5946;51.770;8.548;2024-01-30T06:49:27;23.70;;;15.30;;
11777;SDS011;5946;51.770;8.548;2024-01-30T06:51:53;22.13;;;15.13;;
11777;SDS011;5946;51.770;8.548;2024-01-30T06:54:19;20.63;;;15.63;;
11777;SDS011;5946;51.770;8.548;2024-01-30T06:56:45;18.37;;;14.60;;
11777;SDS011;5946;51.770;8.548;2024-01-30T06:59:11;25.30;;;15.33;;
11777;SDS011;5946;51.770;8.548;2024-01-30T07:01:37;23.43;;;14.43;;
11777;SDS011;5946;51.770;8.548;2024-01-30T07:04:03;21.70;;;14.83;;
11777;SDS011;5946;51.770;8.548;2024-01-30T07:06:29;20.30;;;14.37;;
11777;SDS011;5946;51.770;8.548;2024-01-30T07:08:55;21.23;;;15.10;;
11777;SDS011;5946;51.770;8.548;2024-01-30T07:11:21;20.57;;;14.47;;
11777;SDS011;5946;51.770;8.548;2024-01-30T07:13:50;24.17;;;14.60;;
11777;SDS011;5946;51.770;8.548;2024-01-30T07:16:16;20.03;;;13.80;;
11777;SDS011;5946;51.770;8.548;2024-01-30T07:18:42;18.27;;;14.17;;
11777;SDS011;5946;51.770;8.548;2024-01-30T07:21:09;20.80;;;14.43;;
11777;SDS011;5946;51.770;8.548;2024-01-30T07:23:35;19.20;;;13.87;;
11777;SDS011;5946;51.770;8.548;2024-01-30T07:26:03;21.03;;;14.60;;
11777;SDS011;5946;51.770;8.548;2024-01-30T07:28:29;22.13;;;15.00;;
11777;SDS011;5946;51.770;8.548;2024-01-30T07:30:55;20.80;;;14.03;;
11777;SDS011;5946;51.770;8.548;2024-01-30T07:33:21;19.80;;;14.23;;
11777;SDS011;5946;51.770;8.548;2024-01-30T07:35:47;22.83;;;13.90;;
11777;SDS011;5946;51.770;8.548;2024-01-30T07:38:13;20.27;;;13.87;;
11777;SDS011;5946;51.770;8.548;2024-01-30T07:40:39;21.13;;;13.83;;
11777;SDS011;5946;51.770;8.548;2024-01-30T07:43:06;18.60;;;13.40;;
11777;SDS011;5946;51.770;8.548;2024-01-30T07:45:32;20.37;;;14.30;;
11777;SDS011;5946;51.770;8.548;2024-01-30T07:47:58;22.63;;;14.90;;
11777;SDS011;5946;51.770;8.548;2024-01-30T07:50:27;17.70;;;13.03;;
11777;SDS011;5946;51.770;8.548;2024-01-30T07:52:53;15.50;;;13.30;;
11777;SDS011;5946;51.770;8.548;2024-01-30T07:55:22;18.33;;;12.53;;
11777;SDS011;5946;51.770;8.548;2024-01-30T07:57:56;16.43;;;12.47;;
11777;SDS011;5946;51.770;8.548;2024-01-30T08:00:23;18.17;;;12.40;;
11777;SDS011;5946;51.770;8.548;2024-01-30T08:02:49;17.43;;;13.43;;
11777;SDS011;5946;51.770;8.548;2024-01-30T08:05:15;17.17;;;12.77;;
11777;SDS011;5946;51.770;8.548;2024-01-30T08:07:41;17.73;;;12.87;;
11777;SDS011;5946;51.770;8.548;2024-01-30T08:10:08;19.43;;;12.60;;
11777;SDS011;5946;51.770;8.548;2024-01-30T08:12:34;15.03;;;11.97;;
11777;SDS011;5946;51.770;8.548;2024-01-30T08:15:00;19.07;;;12.63;;
11777;SDS011;5946;51.770;8.548;2024-01-30T08:17:26;19.40;;;12.17;;
11777;SDS011;5946;51.770;8.548;2024-01-30T08:19:52;16.40;;;12.03;;
11777;SDS011;5946;51.770;8.548;2024-01-30T08:22:18;16.53;;;12.57;;
11777;SDS011;5946;51.770;8.548;2024-01-30T08:24:44;18.30;;;12.67;;
11777;SDS011;5946;51.770;8.548;2024-01-30T08:27:10;18.93;;;12.43;;
11777;SDS011;5946;51.770;8.548;2024-01-30T08:29:37;14.90;;;12.03;;
11777;SDS011;5946;51.770;8.548;2024-01-30T08:32:03;16.43;;;11.73;;
11777;SDS011;5946;51.770;8.548;2024-01-30T08:34:29;15.47;;;11.77;;
11777;SDS011;5946;51.770;8.548;2024-01-30T08:36:55;14.87;;;11.33;;
11777;SDS011;5946;51.770;8.548;2024-01-30T08:39:21;15.90;;;11.37;;
11777;SDS011;5946;51.770;8.548;2024-01-30T08:41:47;17.53;;;11.03;;
11777;SDS011;5946;51.770;8.548;2024-01-30T08:44:13;14.33;;;11.23;;
11777;SDS011;5946;51.770;8.548;2024-01-30T08:46:39;17.33;;;12.10;;
11777;SDS011;5946;51.770;8.548;2024-01-30T08:49:05;14.53;;;11.43;;
11777;SDS011;5946;51.770;8.548;2024-01-30T08:51:31;16.30;;;11.30;;
11777;SDS011;5946;51.770;8.548;2024-01-30T08:53:57;16.13;;;10.77;;
11777;SDS011;5946;51.770;8.548;2024-01-30T08:56:23;12.90;;;10.33;;
11777;SDS011;5946;51.770;8.548;2024-01-30T08:58:49;12.10;;;10.00;;
11777;SDS011;5946;51.770;8.548;2024-01-30T09:01:15;12.17;;;10.30;;
11777;SDS011;5946;51.770;8.548;2024-01-30T09:03:41;13.47;;;10.40;;
11777;SDS011;5946;51.770;8.548;2024-01-30T09:06:09;15.17;;;10.53;;
11777;SDS011;5946;51.770;8.548;2024-01-30T09:08:35;12.37;;;9.67;;
11777;SDS011;5946;51.770;8.548;2024-01-30T09:11:01;12.77;;;9.70;;
11777;SDS011;5946;51.770;8.548;2024-01-30T09:13:27;11.27;;;9.70;;
11777;SDS011;5946;51.770;8.548;2024-01-30T09:15:52;15.73;;;9.33;;
11777;SDS011;5946;51.770;8.548;2024-01-30T09:18:19;11.53;;;9.13;;
11777;SDS011;5946;51.770;8.548;2024-01-30T09:20:45;11.87;;;9.37;;
11777;SDS011;5946;51.770;8.548;2024-01-30T09:23:12;10.40;;;8.23;;
11777;SDS011;5946;51.770;8.548;2024-01-30T09:25:38;11.63;;;8.50;;
11777;SDS011;5946;51.770;8.548;2024-01-30T09:28:05;11.67;;;8.87;;
11777;SDS011;5946;51.770;8.548;2024-01-30T09:30:31;15.80;;;9.60;;
11777;SDS011;5946;51.770;8.548;2024-01-30T09:32:57;15.20;;;9.27;;
11777;SDS011;5946;51.770;8.548;2024-01-30T09:35:23;11.27;;;8.27;;
11777;SDS011;5946;51.770;8.548;2024-01-30T09:37:49;10.60;;;8.23;;
11777;SDS011;5946;51.770;8.548;2024-01-30T09:40:16;10.80;;;8.70;;
11777;SDS011;5946;51.770;8.548;2024-01-30T09:42:44;10.27;;;8.23;;
11777;SDS011;5946;51.770;8.548;2024-01-30T09:45:13;10.27;;;8.10;;
11777;SDS011;5946;51.770;8.548;2024-01-30T09:47:40;11.40;;;7.73;;
11777;SDS011;5946;51.770;8.548;2024-01-30T09:50:08;13.10;;;8.00;;
11777;SDS011;5946;51.770;8.548;2024-01-30T09:52:34;12.00;;;7.73;;
11777;SDS011;5946;51.770;8.548;2024-01-30T09:55:00;9.97;;;7.60;;
11777;SDS011;5946;51.770;8.548;2024-01-30T09:57:27;10.13;;;7.93;;
11777;SDS011;5946;51.770;8.548;2024-01-30T09:59:53;10.80;;;7.90;;
11777;SDS011;5946;51.770;8.548;2024-01-30T10:02:19;9.87;;;7.80;;
11777;SDS011;5946;51.770;8.548;2024-01-30T10:04:52;9.43;;;7.50;;
11777;SDS011;5946;51.770;8.548;2024-01-30T10:07:18;9.57;;;7.20;;
11777;SDS011;5946;51.770;8.548;2024-01-30T10:09:44;12.60;;;7.77;;
11777;SDS011;5946;51.770;8.548;2024-01-30T10:12:11;10.83;;;7.33;;
11777;SDS011;5946;51.770;8.548;2024-01-30T10:14:40;11.50;;;7.30;;
11777;SDS011;5946;51.770;8.548;2024-01-30T10:17:09;11.23;;;7.50;;
11777;SDS011;5946;51.770;8.548;2024-01-30T10:19:35;8.80;;;7.30;;
11777;SDS011;5946;51.770;8.548;2024-01-30T10:22:02;11.13;;;7.77;;
11777;SDS011;5946;51.770;8.548;2024-01-30T10:24:28;7.93;;;6.83;;
11777;SDS011;5946;51.770;8.548;2024-01-30T10:26:56;12.30;;;7.30;;
11777;SDS011;5946;51.770;8.548;2024-01-30T10:29:23;11.23;;;7.07;;
11777;SDS011;5946;51.770;8.548;2024-01-30T10:31:59;8.67;;;7.60;;
11777;SDS011;5946;51.770;8.548;2024-01-30T10:34:25;11.23;;;7.20;;
11777;SDS011;5946;51.770;8.548;2024-01-30T10:36:51;8.33;;;7.10;;
11777;SDS011;5946;51.770;8.548;2024-01-30T10:39:20;9.00;;;6.67;;
11777;SDS011;5946;51.770;8.548;2024-01-30T10:41:47;7.53;;;6.63;;
11777;SDS011;5946;51.770;8.548;2024-01-30T10:44:13;8.60;;;7.17;;
11777;SDS011;5946;51.770;8.548;2024-01-30T10:46:43;11.17;;;8.30;;
11777;SDS011;5946;51.770;8.548;2024-01-30T10:49:11;13.77;;;9.60;;
11777;SDS011;5946;51.770;8.548;2024-01-30T10:51:38;18.50;;;12.63;;
11777;SDS011;5946;51.770;8.548;2024-01-30T10:54:05;16.20;;;11.67;;
11777;SDS011;5946;51.770;8.548;2024-01-30T10:56:30;14.03;;;10.67;;
11777;SDS011;5946;51.770;8.548;2024-01-30T10:58:58;13.37;;;9.83;;
11777;SDS011;5946;51.770;8.548;2024-01-30T11:01:24;13.17;;;10.53;;
11777;SDS011;5946;51.770;8.548;2024-01-30T11:03:51;12.13;;;9.63;;
11777;SDS011;5946;51.770;8.548;2024-01-30T11:06:17;14.27;;;9.73;;
11777;SDS011;5946;51.770;8.548;2024-01-30T11:08:44;16.57;;;10.00;;
11777;SDS011;5946;51.770;8.548;2024-01-30T11:11:10;12.50;;;10.00;;
11777;SDS011;5946;51.770;8.548;2024-01-30T11:13:36;12.27;;;9.30;;
11777;SDS011;5946;51.770;8.548;2024-01-30T11:16:05;16.17;;;9.47;;
11777;SDS011;5946;51.770;8.548;2024-01-30T11:18:31;14.57;;;8.57;;
11777;SDS011;5946;51.770;8.548;2024-01-30T11:20:58;10.53;;;8.97;;
11777;SDS011;5946;51.770;8.548;2024-01-30T11:23:27;11.33;;;8.63;;
11777;SDS011;5946;51.770;8.548;2024-01-30T11:25:53;11.43;;;9.00;;
11777;SDS011;5946;51.770;8.548;2024-01-30T11:28:21;9.80;;;7.97;;
11777;SDS011;5946;51.770;8.548;2024-01-30T11:30:47;10.23;;;8.00;;
11777;SDS011;5946;51.770;8.548;2024-01-30T11:33:15;11.80;;;8.07;;
11777;SDS011;5946;51.770;8.548;2024-01-30T11:35:43;9.07;;;7.03;;
11777;SDS011;5946;51.770;8.548;2024-01-30T11:38:10;11.33;;;8.00;;
11777;SDS011;5946;51.770;8.548;2024-01-30T11:40:37;11.23;;;7.37;;
11777;SDS011;5946;51.770;8.548;2024-01-30T11:43:03;8.13;;;6.60;;
11777;SDS011;5946;51.770;8.548;2024-01-30T11:45:30;13.07;;;6.30;;
11777;SDS011;5946;51.770;8.548;2024-01-30T11:47:56;10.43;;;6.43;;
11777;SDS011;5946;51.770;8.548;2024-01-30T11:50:22;8.23;;;6.00;;
11777;SDS011;5946;51.770;8.548;2024-01-30T11:52:48;8.37;;;6.43;;
11777;SDS011;5946;51.770;8.548;2024-01-30T11:55:14;7.03;;;6.33;;
11777;SDS011;5946;51.770;8.548;2024-01-30T11:57:40;9.23;;;6.03;;
11777;SDS011;5946;51.770;8.548;2024-01-30T12:00:13;7.93;;;6.03;;
11777;SDS011;5946;51.770;8.548;2024-01-30T12:02:40;6.07;;;5.47;;
11777;SDS011;5946;51.770;8.548;2024-01-30T12:05:06;8.50;;;6.50;;
11777;SDS011;5946;51.770;8.548;2024-01-30T12:07:33;7.67;;;5.80;;
11777;SDS011;5946;51.770;8.548;2024-01-30T12:09:59;8.27;;;6.00;;
11777;SDS011;5946;51.770;8.548;2024-01-30T12:12:26;10.17;;;6.40;;
11777;SDS011;5946;51.770;8.548;2024-01-30T12:14:52;9.93;;;5.80;;
11777;SDS011;5946;51.770;8.548;2024-01-30T12:17:27;9.13;;;5.77;;
11777;SDS011;5946;51.770;8.548;2024-01-30T12:20:02;11.40;;;6.13;;
11777;SDS011;5946;51.770;8.548;2024-01-30T12:22:28;9.93;;;6.17;;
11777;SDS011;5946;51.770;8.548;2024-01-30T12:24:54;9.60;;;6.20;;
11777;SDS011;5946;51.770;8.548;2024-01-30T12:27:20;7.60;;;6.20;;
11777;SDS011;5946;51.770;8.548;2024-01-30T12:29:46;9.10;;;6.40;;
11777;SDS011;5946;51.770;8.548;2024-01-30T12:32:15;11.37;;;6.30;;
11777;SDS011;5946;51.770;8.548;2024-01-30T12:34:42;8.80;;;5.50;;
11777;SDS011;5946;51.770;8.548;2024-01-30T12:37:07;11.63;;;5.93;;
11777;SDS011;5946;51.770;8.548;2024-01-30T12:39:34;10.97;;;5.80;;
11777;SDS011;5946;51.770;8.548;2024-01-30T12:42:01;8.50;;;5.83;;
11777;SDS011;5946;51.770;8.548;2024-01-30T12:44:28;10.37;;;6.20;;
11777;SDS011;5946;51.770;8.548;2024-01-30T12:46:54;8.77;;;5.63;;
11777;SDS011;5946;51.770;8.548;2024-01-30T12:49:20;7.73;;;5.63;;
11777;SDS011;5946;51.770;8.548;2024-01-30T12:51:46;8.73;;;5.60;;
11777;SDS011;5946;51.770;8.548;2024-01-30T12:54:12;10.20;;;6.27;;
11777;SDS011;5946;51.770;8.548;2024-01-30T12:56:38;9.57;;;6.23;;
11777;SDS011;5946;51.770;8.548;2024-01-30T12:59:04;8.93;;;6.00;;
11777;SDS011;5946;51.770;8.548;2024-01-30T13:01:30;10.13;;;5.73;;
11777;SDS011;5946;51.770;8.548;2024-01-30T13:03:56;9.40;;;6.23;;
11777;SDS011;5946;51.770;8.548;2024-01-30T13:06:23;14.17;;;7.53;;
11777;SDS011;5946;51.770;8.548;2024-01-30T13:08:49;12.37;;;5.77;;
11777;SDS011;5946;51.770;8.548;2024-01-30T13:11:15;9.47;;;6.57;;
11777;SDS011;5946;51.770;8.548;2024-01-30T13:13:41;10.37;;;5.97;;
11777;SDS011;5946;51.770;8.548;2024-01-30T13:16:07;11.50;;;6.57;;
11777;SDS011;5946;51.770;8.548;2024-01-30T13:18:33;15.77;;;7.97;;
11777;SDS011;5946;51.770;8.548;2024-01-30T13:20:59;12.77;;;7.30;;
11777;SDS011;5946;51.770;8.548;2024-01-30T13:23:25;13.23;;;7.13;;
11777;SDS011;5946;51.770;8.548;2024-01-30T13:25:51;13.63;;;6.57;;
11777;SDS011;5946;51.770;8.548;2024-01-30T13:28:18;11.77;;;6.30;;
11777;SDS011;5946;51.770;8.548;2024-01-30T13:30:45;13.80;;;6.67;;
11777;SDS011;5946;51.770;8.548;2024-01-30T13:33:10;9.83;;;6.93;;
11777;SDS011;5946;51.770;8.548;2024-01-30T13:35:37;10.87;;;6.63;;
11777;SDS011;5946;51.770;8.548;2024-01-30T13:38:03;12.47;;;6.83;;
11777;SDS011;5946;51.770;8.548;2024-01-30T13:40:29;11.93;;;7.27;;
11777;SDS011;5946;51.770;8.548;2024-01-30T13:42:55;11.90;;;6.97;;
11777;SDS011;5946;51.770;8.548;2024-01-30T13:45:21;10.20;;;7.33;;
11777;SDS011;5946;51.770;8.548;2024-01-30T13:47:47;10.90;;;7.40;;
11777;SDS011;5946;51.770;8.548;2024-01-30T13:50:13;14.80;;;7.23;;
11777;SDS011;5946;51.770;8.548;2024-01-30T13:52:41;9.77;;;7.03;;
11777;SDS011;5946;51.770;8.548;2024-01-30T13:55:07;11.83;;;7.07;;
11777;SDS011;5946;51.770;8.548;2024-01-30T13:57:33;10.73;;;6.83;;
11777;SDS011;5946;51.770;8.548;2024-01-30T14:00:01;17.00;;;7.90;;
11777;SDS011;5946;51.770;8.548;2024-01-30T14:02:28;14.83;;;7.27;;
11777;SDS011;5946;51.770;8.548;2024-01-30T14:04:54;11.63;;;6.97;;
11777;SDS011;5946;51.770;8.548;2024-01-30T14:07:20;13.27;;;7.23;;
11777;SDS011;5946;51.770;8.548;2024-01-30T14:09:46;12.27;;;7.30;;
11777;SDS011;5946;51.770;8.548;2024-01-30T14:12:11;12.83;;;7.27;;
11777;SDS011;5946;51.770;8.548;2024-01-30T14:14:37;13.27;;;8.07;;
11777;SDS011;5946;51.770;8.548;2024-01-30T14:17:03;15.13;;;8.80;;
11777;SDS011;5946;51.770;8.548;2024-01-30T14:19:32;16.63;;;8.10;;
11777;SDS011;5946;51.770;8.548;2024-01-30T14:21:57;15.70;;;7.73;;
11777;SDS011;5946;51.770;8.548;2024-01-30T14:24:23;22.90;;;8.13;;
11777;SDS011;5946;51.770;8.548;2024-01-30T14:26:49;20.90;;;8.43;;
11777;SDS011;5946;51.770;8.548;2024-01-30T14:29:16;16.27;;;9.20;;
11777;SDS011;5946;51.770;8.548;2024-01-30T14:31:41;15.50;;;8.40;;
11777;SDS011;5946;51.770;8.548;2024-01-30T14:34:07;11.87;;;8.50;;